Time;durP1;ratioP1;P1;durP2;ratioP2;P2;SDS_P1;SDS_P2;PMS_P1;PMS_P2;Temp;Humidity;BMP_temperature;BMP_pressure;BME280_temperature;BME280_humidity;BME280_pressure;Samples;Min_cycle;Max_cycle;Signal;HPM_P1;HPM_P2
2023/03/02 00:01:38;;;;;;;104.70;46.27;;;;;;;;;;771633;181;920493;-63
2023/03/02 00:04:04;;;;;;;76.93;43.77;;;;;;;;;;772341;181;916844;-65
2023/03/02 00:06:30;;;;;;;81.03;41.50;;;;;;;;;;779035;181;635274;-68
2023/03/02 00:08:59;;;;;;;95.90;44.27;;;;;;;;;;776477;181;817008;-67
2023/03/02 00:11:22;;;;;;;86.47;47.33;;;;;;;;;;775224;181;918548;-64
2023/03/02 00:13:47;;;;;;;94.87;45.72;;;;;;;;;;775663;181;919294;-68
2023/03/02 00:16:13;;;;;;;80.00;39.17;;;;;;;;;;770976;181;919424;-68
2023/03/02 00:18:39;;;;;;;89.27;41.63;;;;;;;;;;773034;181;821522;-64
2023/03/02 00:21:09;;;;;;;76.50;40.80;;;;;;;;;;776861;181;628713;-66
2023/03/02 00:23:31;;;;;;;76.63;38.63;;;;;;;;;;777389;179;898890;-67
2023/03/02 00:25:57;;;;;;;75.43;41.03;;;;;;;;;;775516;181;936156;-67
2023/03/02 00:28:22;;;;;;;80.43;43.17;;;;;;;;;;763403;180;905959;-67
2023/03/02 00:30:48;;;;;;;79.13;43.40;;;;;;;;;;778194;181;918991;-67
2023/03/02 00:33:14;;;;;;;78.50;40.23;;;;;;;;;;773344;180;917478;-65
2023/03/02 00:35:40;;;;;;;79.78;40.50;;;;;;;;;;772582;181;922330;-65
2023/03/02 00:38:06;;;;;;;81.83;45.10;;;;;;;;;;770019;182;913873;-66
2023/03/02 00:40:32;;;;;;;69.13;37.10;;;;;;;;;;763188;183;919377;-68
2023/03/02 00:42:58;;;;;;;76.23;39.60;;;;;;;;;;767500;181;917950;-66
2023/03/02 00:45:23;;;;;;;80.30;41.93;;;;;;;;;;766999;182;918617;-67
2023/03/02 00:47:49;;;;;;;74.80;38.87;;;;;;;;;;771152;179;910487;-65
2023/03/02 00:50:15;;;;;;;87.40;41.10;;;;;;;;;;758887;183;918878;-66
2023/03/02 00:52:41;;;;;;;74.65;42.65;;;;;;;;;;767384;181;914830;-65
2023/03/02 00:55:08;;;;;;;86.30;38.23;;;;;;;;;;773935;182;922482;-64
2023/03/02 00:57:33;;;;;;;84.43;42.87;;;;;;;;;;771608;180;911405;-67
2023/03/02 00:59:59;;;;;;;86.25;40.75;;;;;;;;;;768026;182;918205;-66
2023/03/02 01:02:24;;;;;;;76.93;38.63;;;;;;;;;;776955;181;619912;-65
2023/03/02 01:04:52;;;;;;;75.60;38.57;;;;;;;;;;770639;179;619165;-65
2023/03/02 01:07:16;;;;;;;80.63;39.97;;;;;;;;;;769109;182;623390;-65
2023/03/02 01:09:42;;;;;;;87.80;40.78;;;;;;;;;;767090;182;918997;-66
2023/03/02 01:12:10;;;;;;;76.47;41.17;;;;;;;;;;761002;181;817480;-65
2023/03/02 01:14:34;;;;;;;102.37;45.23;;;;;;;;;;769845;181;821144;-65
2023/03/02 01:17:00;;;;;;;72.93;34.87;;;;;;;;;;765807;182;817338;-67
2023/03/02 01:19:26;;;;;;;92.50;43.73;;;;;;;;;;770264;183;918558;-66
2023/03/02 01:21:51;;;;;;;79.00;37.95;;;;;;;;;;768041;182;816080;-65
2023/03/02 01:24:17;;;;;;;79.27;42.07;;;;;;;;;;769068;180;626545;-67
2023/03/02 01:26:43;;;;;;;80.43;35.47;;;;;;;;;;771083;183;620449;-68
2023/03/02 01:29:10;;;;;;;68.90;39.10;;;;;;;;;;770639;179;633561;-65
2023/03/02 01:31:35;;;;;;;76.47;41.47;;;;;;;;;;772618;181;846273;-65
2023/03/02 01:34:01;;;;;;;85.47;42.60;;;;;;;;;;772728;182;916291;-65
2023/03/02 01:36:27;;;;;;;76.10;39.10;;;;;;;;;;766143;182;922345;-64
2023/03/02 01:38:53;;;;;;;86.20;40.87;;;;;;;;;;769089;181;918315;-64
2023/03/02 01:41:18;;;;;;;79.10;41.47;;;;;;;;;;771326;179;919276;-64
2023/03/02 01:43:44;;;;;;;81.30;40.40;;;;;;;;;;774320;181;914375;-66
2023/03/02 01:46:12;;;;;;;87.70;39.10;;;;;;;;;;773465;181;918943;-67
2023/03/02 01:48:38;;;;;;;86.27;42.70;;;;;;;;;;771742;181;919000;-64
2023/03/02 01:51:04;;;;;;;77.33;39.27;;;;;;;;;;772011;181;921080;-66
2023/03/02 01:53:30;;;;;;;89.97;42.33;;;;;;;;;;770589;180;915285;-64
2023/03/02 01:55:56;;;;;;;99.20;40.47;;;;;;;;;;767859;181;919698;-67
2023/03/02 01:58:22;;;;;;;91.60;45.90;;;;;;;;;;774890;181;920210;-67
2023/03/02 02:00:48;;;;;;;79.40;40.70;;;;;;;;;;762745;181;1025196;-65
2023/03/02 02:03:13;;;;;;;69.53;37.83;;;;;;;;;;764483;180;918749;-68
2023/03/02 02:05:39;;;;;;;75.70;38.40;;;;;;;;;;768241;180;817224;-66
2023/03/02 02:08:05;;;;;;;90.50;41.67;;;;;;;;;;776483;180;817051;-64
2023/03/02 02:10:31;;;;;;;68.50;33.77;;;;;;;;;;770902;181;919882;-64
2023/03/02 02:12:57;;;;;;;75.03;37.13;;;;;;;;;;767650;181;917376;-67
2023/03/02 02:15:23;;;;;;;93.17;41.77;;;;;;;;;;770180;183;772262;-66
2023/03/02 02:17:48;;;;;;;83.13;36.50;;;;;;;;;;769332;180;916055;-64
2023/03/02 02:20:18;;;;;;;97.33;46.00;;;;;;;;;;775158;181;920254;-66
2023/03/02 02:22:44;;;;;;;78.43;39.70;;;;;;;;;;778944;180;917118;-67
2023/03/02 02:25:11;;;;;;;74.27;38.57;;;;;;;;;;776989;181;891263;-67
2023/03/02 02:27:37;;;;;;;82.43;43.20;;;;;;;;;;771097;179;919569;-65
2023/03/02 02:30:03;;;;;;;95.93;47.40;;;;;;;;;;767941;181;919815;-66
2023/03/02 02:32:29;;;;;;;99.17;45.60;;;;;;;;;;773904;182;867275;-65
2023/03/02 02:34:55;;;;;;;86.43;41.03;;;;;;;;;;769476;182;884817;-66
2023/03/02 02:37:21;;;;;;;100.43;50.80;;;;;;;;;;766798;181;920845;-66
2023/03/02 02:39:47;;;;;;;91.87;46.33;;;;;;;;;;768989;184;820513;-63
2023/03/02 02:42:13;;;;;;;94.63;45.67;;;;;;;;;;763301;182;921419;-66
2023/03/02 02:44:39;;;;;;;99.37;47.97;;;;;;;;;;773552;180;941876;-64
2023/03/02 02:47:05;;;;;;;91.60;44.97;;;;;;;;;;771119;181;919828;-65
2023/03/02 02:49:35;;;;;;;89.87;40.03;;;;;;;;;;763713;182;918923;-66
2023/03/02 02:52:00;;;;;;;67.60;36.10;;;;;;;;;;767889;182;922160;-66
2023/03/02 02:54:26;;;;;;;86.40;36.43;;;;;;;;;;770190;181;918004;-68
2023/03/02 02:56:52;;;;;;;68.60;37.27;;;;;;;;;;769998;182;917530;-70
2023/03/02 02:59:19;;;;;;;85.47;45.78;;;;;;;;;;770717;181;917247;-67
2023/03/02 03:01:45;;;;;;;80.33;43.47;;;;;;;;;;771085;180;917700;-65
2023/03/02 03:04:11;;;;;;;63.03;27.50;;;;;;;;;;771008;182;913190;-66
2023/03/02 03:06:40;;;;;;;79.23;39.80;;;;;;;;;;779082;179;1019696;-64
2023/03/02 03:09:03;;;;;;;94.67;45.80;;;;;;;;;;770945;180;819483;-67
2023/03/02 03:11:29;;;;;;;79.05;39.80;;;;;;;;;;765878;181;819705;-66
2023/03/02 03:13:59;;;;;;;87.07;36.80;;;;;;;;;;780388;180;636829;-68
2023/03/02 03:16:25;;;;;;;68.67;36.77;;;;;;;;;;770355;180;639665;-66
2023/03/02 03:18:51;;;;;;;91.23;43.37;;;;;;;;;;773572;180;621601;-68
2023/03/02 03:21:17;;;;;;;94.40;44.97;;;;;;;;;;771284;182;918447;-67
2023/03/02 03:23:43;;;;;;;91.67;43.97;;;;;;;;;;768995;182;817212;-65
2023/03/02 03:26:09;;;;;;;84.87;43.20;;;;;;;;;;772646;181;916578;-67
2023/03/02 03:28:34;;;;;;;72.23;39.23;;;;;;;;;;769282;179;920148;-65
2023/03/02 03:31:00;;;;;;;60.47;30.03;;;;;;;;;;772669;180;919418;-65
2023/03/02 03:33:26;;;;;;;82.13;42.70;;;;;;;;;;770200;181;919235;-67
2023/03/02 03:35:52;;;;;;;82.23;43.33;;;;;;;;;;763051;182;919449;-67
2023/03/02 03:38:18;;;;;;;77.20;40.87;;;;;;;;;;770561;181;918618;-66
2023/03/02 03:40:44;;;;;;;84.37;42.40;;;;;;;;;;772064;180;918678;-67
2023/03/02 03:43:12;;;;;;;98.50;45.83;;;;;;;;;;764586;180;918562;-65
2023/03/02 03:45:35;;;;;;;81.30;42.70;;;;;;;;;;771533;182;919029;-67
2023/03/02 03:48:01;;;;;;;87.70;44.03;;;;;;;;;;762519;183;916177;-66
2023/03/02 03:50:27;;;;;;;92.20;44.53;;;;;;;;;;762086;183;921534;-67
2023/03/02 03:52:53;;;;;;;92.93;44.70;;;;;;;;;;763407;180;917699;-68
2023/03/02 03:55:19;;;;;;;91.70;43.77;;;;;;;;;;763981;184;919233;-68
2023/03/02 03:57:45;;;;;;;84.53;41.97;;;;;;;;;;771455;181;918560;-68
2023/03/02 04:00:13;;;;;;;91.27;41.33;;;;;;;;;;769369;181;919206;-66
2023/03/02 04:02:37;;;;;;;105.50;47.40;;;;;;;;;;773866;181;721255;-68
2023/03/02 04:05:05;;;;;;;98.85;47.65;;;;;;;;;;770066;181;954816;-66
2023/03/02 04:07:31;;;;;;;90.23;47.53;;;;;;;;;;768375;181;915197;-65
2023/03/02 04:10:02;;;;;;;87.50;42.60;;;;;;;;;;775161;181;910135;-67
2023/03/02 04:12:22;;;;;;;82.95;42.38;;;;;;;;;;767861;182;916796;-64
2023/03/02 04:14:48;;;;;;;97.70;44.17;;;;;;;;;;768559;181;919369;-66
2023/03/02 04:17:14;;;;;;;102.60;51.13;;;;;;;;;;768558;181;927365;-66
2023/03/02 04:19:40;;;;;;;109.77;51.77;;;;;;;;;;772684;182;917873;-67
2023/03/02 04:22:06;;;;;;;89.07;44.83;;;;;;;;;;764618;183;919679;-65
2023/03/02 04:24:32;;;;;;;89.72;43.70;;;;;;;;;;769153;179;918756;-67
2023/03/02 04:26:57;;;;;;;134.83;65.50;;;;;;;;;;769102;182;919523;-65
2023/03/02 04:29:23;;;;;;;133.27;58.60;;;;;;;;;;764218;180;818759;-67
2023/03/02 04:31:49;;;;;;;103.87;55.20;;;;;;;;;;769496;179;920494;-66
2023/03/02 04:34:15;;;;;;;91.97;46.43;;;;;;;;;;773308;181;918883;-66
2023/03/02 04:36:41;;;;;;;99.80;53.10;;;;;;;;;;770039;181;918955;-67
2023/03/02 04:39:07;;;;;;;103.53;46.90;;;;;;;;;;766285;181;921812;-67
2023/03/02 04:41:32;;;;;;;106.13;50.63;;;;;;;;;;771067;178;921373;-66
2023/03/02 04:43:58;;;;;;;122.40;53.03;;;;;;;;;;774343;181;815585;-67
2023/03/02 04:46:24;;;;;;;110.53;51.47;;;;;;;;;;767055;180;912086;-68
2023/03/02 04:48:50;;;;;;;93.90;46.90;;;;;;;;;;771187;181;919106;-66
2023/03/02 04:51:17;;;;;;;102.20;45.60;;;;;;;;;;774446;181;919142;-65
2023/03/02 04:53:42;;;;;;;98.20;50.40;;;;;;;;;;771960;181;917656;-66
2023/03/02 04:56:08;;;;;;;78.35;34.75;;;;;;;;;;770490;180;817253;-67
2023/03/02 04:58:34;;;;;;;95.50;44.00;;;;;;;;;;776789;180;919327;-65
2023/03/02 05:01:02;;;;;;;85.77;38.17;;;;;;;;;;766664;181;917798;-65
2023/03/02 05:03:26;;;;;;;86.20;39.60;;;;;;;;;;774393;181;918218;-65
2023/03/02 05:05:52;;;;;;;86.00;42.50;;;;;;;;;;778378;180;916934;-66
2023/03/02 05:08:18;;;;;;;84.33;43.67;;;;;;;;;;766670;180;918874;-65
2023/03/02 05:10:44;;;;;;;110.90;48.13;;;;;;;;;;772495;181;919157;-67
2023/03/02 05:13:10;;;;;;;133.83;58.40;;;;;;;;;;772265;181;916744;-67
2023/03/02 05:15:36;;;;;;;116.10;51.50;;;;;;;;;;773070;180;915670;-65
2023/03/02 05:18:02;;;;;;;108.33;49.30;;;;;;;;;;769807;179;920698;-67
2023/03/02 05:20:29;;;;;;;85.47;48.00;;;;;;;;;;769348;179;918282;-65
2023/03/02 05:22:54;;;;;;;112.30;50.83;;;;;;;;;;774042;180;922446;-68
2023/03/02 05:25:19;;;;;;;100.03;53.50;;;;;;;;;;770828;180;817416;-66
2023/03/02 05:27:45;;;;;;;109.10;48.70;;;;;;;;;;771535;180;926190;-66
2023/03/02 05:30:12;;;;;;;92.17;48.47;;;;;;;;;;779374;180;714684;-67
2023/03/02 05:32:37;;;;;;;95.80;48.73;;;;;;;;;;767184;181;906553;-65
2023/03/02 05:35:04;;;;;;;103.63;51.60;;;;;;;;;;772467;180;912014;-67
2023/03/02 05:37:30;;;;;;;108.33;48.47;;;;;;;;;;769301;180;913240;-65
2023/03/02 05:39:56;;;;;;;105.10;48.73;;;;;;;;;;773524;180;949130;-66
2023/03/02 05:42:22;;;;;;;99.23;48.40;;;;;;;;;;769211;180;1015048;-67
2023/03/02 05:44:48;;;;;;;101.70;50.60;;;;;;;;;;768120;181;1117768;-67
2023/03/02 05:47:13;;;;;;;114.10;53.63;;;;;;;;;;775264;181;919396;-67
2023/03/02 05:49:39;;;;;;;92.80;47.17;;;;;;;;;;766435;180;920603;-65
2023/03/02 05:52:05;;;;;;;103.40;50.57;;;;;;;;;;772764;179;922563;-66
2023/03/02 05:54:31;;;;;;;107.70;49.17;;;;;;;;;;777846;181;918187;-65
2023/03/02 05:56:57;;;;;;;99.83;50.97;;;;;;;;;;774911;180;919440;-68
2023/03/02 05:59:23;;;;;;;109.07;55.60;;;;;;;;;;769757;180;918559;-65
2023/03/02 06:01:49;;;;;;;121.27;55.97;;;;;;;;;;768961;181;919023;-66
2023/03/02 06:04:14;;;;;;;112.30;58.20;;;;;;;;;;771936;179;919067;-68
2023/03/02 06:06:40;;;;;;;104.37;54.90;;;;;;;;;;766889;180;926669;-67
2023/03/02 06:09:06;;;;;;;116.90;55.43;;;;;;;;;;767593;181;920358;-67
2023/03/02 06:11:32;;;;;;;111.10;52.07;;;;;;;;;;773239;180;823981;-67
2023/03/02 06:13:58;;;;;;;121.57;57.37;;;;;;;;;;763326;181;920677;-66
2023/03/02 06:16:24;;;;;;;110.70;50.97;;;;;;;;;;766097;181;822132;-68
2023/03/02 06:18:49;;;;;;;125.40;62.07;;;;;;;;;;777592;180;706621;-65
2023/03/02 06:21:15;;;;;;;110.33;47.87;;;;;;;;;;767137;182;918819;-65
2023/03/02 06:23:41;;;;;;;115.72;60.45;;;;;;;;;;767954;182;817886;-65
2023/03/02 06:26:08;;;;;;;123.93;55.37;;;;;;;;;;768556;182;920651;-65
2023/03/02 06:28:34;;;;;;;115.53;55.40;;;;;;;;;;760560;183;918813;-66
2023/03/02 06:31:00;;;;;;;115.40;57.10;;;;;;;;;;763253;180;914316;-64
2023/03/02 06:33:25;;;;;;;130.20;54.83;;;;;;;;;;768422;181;914265;-65
2023/03/02 06:35:51;;;;;;;135.30;56.70;;;;;;;;;;774129;181;874847;-63
2023/03/02 06:38:17;;;;;;;131.23;57.43;;;;;;;;;;769622;182;893133;-64
2023/03/02 06:40:43;;;;;;;120.50;56.40;;;;;;;;;;765218;180;919037;-63
2023/03/02 06:43:09;;;;;;;132.23;59.90;;;;;;;;;;767472;183;917907;-65
2023/03/02 06:45:36;;;;;;;107.50;54.80;;;;;;;;;;768877;181;923585;-67
2023/03/02 06:48:01;;;;;;;149.27;60.60;;;;;;;;;;771083;181;917735;-66
2023/03/02 06:50:27;;;;;;;110.50;52.88;;;;;;;;;;773549;181;922827;-64
2023/03/02 06:52:53;;;;;;;96.27;47.87;;;;;;;;;;768474;179;919699;-68
2023/03/02 06:55:18;;;;;;;125.97;54.50;;;;;;;;;;764400;181;915929;-68
2023/03/02 06:57:44;;;;;;;106.43;54.75;;;;;;;;;;771647;181;919902;-67
2023/03/02 07:00:15;;;;;;;116.03;60.97;;;;;;;;;;778187;180;918236;-64
2023/03/02 07:02:38;;;;;;;113.73;59.10;;;;;;;;;;770763;179;920464;-64
2023/03/02 07:05:05;;;;;;;110.47;45.78;;;;;;;;;;775298;179;919209;-65
2023/03/02 07:07:31;;;;;;;40.10;20.40;;;;;;;;;;778261;180;920712;-66
2023/03/02 07:09:57;;;;;;;91.93;48.70;;;;;;;;;;773180;181;920789;-66
2023/03/02 07:12:23;;;;;;;116.53;53.50;;;;;;;;;;771636;180;918794;-66
2023/03/02 07:14:48;;;;;;;54.93;28.37;;;;;;;;;;771723;180;918888;-66
2023/03/02 07:17:14;;;;;;;69.60;35.83;;;;;;;;;;752273;183;915358;-68
2023/03/02 07:19:40;;;;;;;109.50;50.70;;;;;;;;;;765150;181;709286;-66
2023/03/02 07:22:06;;;;;;;103.00;46.90;;;;;;;;;;774831;180;910458;-66
2023/03/02 07:24:32;;;;;;;81.00;41.53;;;;;;;;;;779004;180;913530;-64
2023/03/02 07:26:58;;;;;;;67.07;34.20;;;;;;;;;;773439;180;940636;-65
2023/03/02 07:29:24;;;;;;;56.63;29.77;;;;;;;;;;772779;181;918462;-65
2023/03/02 07:31:55;;;;;;;99.20;51.83;;;;;;;;;;779821;180;915724;-68
2023/03/02 07:34:15;;;;;;;82.03;37.53;;;;;;;;;;775741;180;919867;-63
2023/03/02 07:36:41;;;;;;;123.87;64.73;;;;;;;;;;772000;181;917454;-64
2023/03/02 07:39:07;;;;;;;134.02;55.28;;;;;;;;;;772054;181;918793;-63
2023/03/02 07:41:33;;;;;;;86.93;42.77;;;;;;;;;;758626;184;920221;-69
2023/03/02 07:43:59;;;;;;;93.53;47.83;;;;;;;;;;775628;180;648178;-68
2023/03/02 07:46:25;;;;;;;78.33;36.90;;;;;;;;;;771780;182;627694;-69
2023/03/02 07:48:51;;;;;;;57.13;32.93;;;;;;;;;;776406;180;874469;-69
2023/03/02 07:51:16;;;;;;;55.30;30.30;;;;;;;;;;768653;181;919614;-65
2023/03/02 07:53:42;;;;;;;79.85;37.03;;;;;;;;;;771479;181;918382;-68
2023/03/02 07:56:08;;;;;;;64.80;32.80;;;;;;;;;;777723;181;918847;-65
2023/03/02 07:58:34;;;;;;;80.25;41.17;;;;;;;;;;759939;181;918138;-67
2023/03/02 08:01:00;;;;;;;82.73;35.03;;;;;;;;;;768980;180;879164;-68
2023/03/02 08:03:26;;;;;;;54.40;31.63;;;;;;;;;;774230;180;922386;-66
2023/03/02 08:05:51;;;;;;;80.47;39.03;;;;;;;;;;767790;182;918076;-66
2023/03/02 08:08:17;;;;;;;50.87;27.10;;;;;;;;;;769270;181;918314;-64
2023/03/02 08:10:43;;;;;;;53.90;28.87;;;;;;;;;;768909;180;919116;-65
2023/03/02 08:13:09;;;;;;;48.17;27.77;;;;;;;;;;775010;180;883829;-65
2023/03/02 08:15:35;;;;;;;63.47;32.10;;;;;;;;;;769495;180;919988;-68
2023/03/02 08:18:01;;;;;;;69.60;37.57;;;;;;;;;;773463;180;898398;-67
2023/03/02 08:20:26;;;;;;;57.60;32.67;;;;;;;;;;780143;180;920405;-65
2023/03/02 08:22:52;;;;;;;52.70;27.40;;;;;;;;;;776353;180;1021179;-67
2023/03/02 08:25:18;;;;;;;56.70;30.67;;;;;;;;;;767135;181;918924;-66
2023/03/02 08:27:44;;;;;;;50.67;27.33;;;;;;;;;;777193;181;917788;-65
2023/03/02 08:30:11;;;;;;;27.10;15.00;;;;;;;;;;766227;180;1000627;-67
2023/03/02 08:32:36;;;;;;;51.70;28.33;;;;;;;;;;771712;180;929675;-68
2023/03/02 08:35:02;;;;;;;51.47;25.73;;;;;;;;;;766778;180;920626;-66
2023/03/02 08:37:28;;;;;;;76.63;27.77;;;;;;;;;;761600;181;918616;-66
2023/03/02 08:39:54;;;;;;;86.23;36.63;;;;;;;;;;773429;180;906641;-68
2023/03/02 08:42:20;;;;;;;77.80;26.93;;;;;;;;;;766069;181;913341;-68
2023/03/02 08:44:46;;;;;;;50.03;32.07;;;;;;;;;;774053;180;1008705;-64
2023/03/02 08:47:12;;;;;;;45.57;28.23;;;;;;;;;;772104;179;904350;-69
2023/03/02 08:49:37;;;;;;;56.00;30.20;;;;;;;;;;769964;181;917159;-65
2023/03/02 08:52:03;;;;;;;60.47;33.30;;;;;;;;;;767873;179;920470;-66
2023/03/02 08:54:29;;;;;;;73.60;37.27;;;;;;;;;;762390;183;820011;-65
2023/03/02 08:56:55;;;;;;;53.20;29.33;;;;;;;;;;767690;180;919146;-67
2023/03/02 08:59:21;;;;;;;28.95;14.20;;;;;;;;;;772301;181;901702;-66
2023/03/02 09:01:47;;;;;;;72.90;39.33;;;;;;;;;;770777;183;918285;-69
2023/03/02 09:04:13;;;;;;;33.13;18.57;;;;;;;;;;767043;182;917340;-68
2023/03/02 09:06:39;;;;;;;63.20;29.40;;;;;;;;;;763600;182;816478;-65
2023/03/02 09:09:05;;;;;;;64.47;37.00;;;;;;;;;;778969;179;910314;-69
2023/03/02 09:11:31;;;;;;;54.00;26.73;;;;;;;;;;767757;182;922849;-68
2023/03/02 09:13:56;;;;;;;52.83;28.47;;;;;;;;;;768741;182;920648;-69
2023/03/02 09:16:24;;;;;;;45.43;23.30;;;;;;;;;;775026;181;916781;-68
2023/03/02 09:18:49;;;;;;;79.00;34.13;;;;;;;;;;768041;181;1021634;-65
2023/03/02 09:21:15;;;;;;;60.22;32.95;;;;;;;;;;764856;182;918264;-68
2023/03/02 09:23:41;;;;;;;59.73;32.10;;;;;;;;;;769725;182;807002;-68
2023/03/02 09:26:07;;;;;;;61.47;32.43;;;;;;;;;;763177;182;919076;-69
2023/03/02 09:28:32;;;;;;;59.90;31.00;;;;;;;;;;768082;178;915412;-65
2023/03/02 09:30:58;;;;;;;63.70;34.10;;;;;;;;;;769459;181;916483;-68
2023/03/02 09:33:24;;;;;;;62.90;36.10;;;;;;;;;;774941;181;816299;-65
2023/03/02 09:35:50;;;;;;;51.10;32.73;;;;;;;;;;770854;180;917587;-67
2023/03/02 09:38:16;;;;;;;57.80;28.10;;;;;;;;;;766902;182;916005;-65
2023/03/02 09:40:57;;;;;;;40.10;21.07;;;;;;;;;;774307;181;877524;-69
2023/03/02 09:43:26;;;;;;;48.70;24.70;;;;;;;;;;775075;181;901019;-68
2023/03/02 09:45:53;;;;;;;48.40;25.03;;;;;;;;;;771792;180;918336;-64
2023/03/02 09:48:20;;;;;;;62.50;30.87;;;;;;;;;;772230;181;919068;-64
2023/03/02 09:50:56;;;;;;;66.27;34.00;;;;;;;;;;771382;181;922207;-68
2023/03/02 09:53:33;;;;;;;55.37;28.37;;;;;;;;;;777042;180;817653;-65
2023/03/02 09:56:00;;;;;;;51.70;27.70;;;;;;;;;;763553;181;920341;-65
2023/03/02 09:58:25;;;;;;;62.03;36.83;;;;;;;;;;753829;186;914257;-69
2023/03/02 10:00:51;;;;;;;54.63;28.40;;;;;;;;;;764054;180;813565;-69
2023/03/02 10:03:17;;;;;;;44.60;25.13;;;;;;;;;;764140;181;882728;-69
2023/03/02 10:05:43;;;;;;;57.57;29.17;;;;;;;;;;769734;180;916584;-64
2023/03/02 10:08:12;;;;;;;49.97;25.90;;;;;;;;;;768073;180;922718;-70
2023/03/02 10:10:43;;;;;;;28.93;14.93;;;;;;;;;;770370;180;919293;-69
2023/03/02 10:13:09;;;;;;;44.67;24.00;;;;;;;;;;773975;181;818005;-65
2023/03/02 10:15:40;;;;;;;52.10;32.93;;;;;;;;;;768865;179;816882;-69
2023/03/02 10:18:12;;;;;;;54.83;24.80;;;;;;;;;;773199;181;917913;-69
2023/03/02 10:20:40;;;;;;;29.23;17.67;;;;;;;;;;773583;181;817355;-65
2023/03/02 10:23:09;;;;;;;36.00;20.43;;;;;;;;;;777500;181;816920;-65
2023/03/02 10:25:37;;;;;;;21.03;12.23;;;;;;;;;;771637;180;907752;-69
2023/03/02 10:28:05;;;;;;;45.27;25.70;;;;;;;;;;772360;181;816043;-69
2023/03/02 10:30:31;;;;;;;36.22;22.20;;;;;;;;;;771417;179;918251;-66
2023/03/02 10:32:56;;;;;;;38.50;22.47;;;;;;;;;;769662;182;905800;-65
2023/03/02 10:35:22;;;;;;;29.70;18.63;;;;;;;;;;766719;182;916962;-70
2023/03/02 10:37:51;;;;;;;36.95;22.40;;;;;;;;;;771405;179;918849;-66
2023/03/02 10:40:17;;;;;;;26.50;16.80;;;;;;;;;;776100;181;919528;-69
2023/03/02 10:42:43;;;;;;;33.35;19.35;;;;;;;;;;769194;179;910805;-70
2023/03/02 10:45:23;;;;;;;55.87;26.17;;;;;;;;;;766192;182;915947;-65
2023/03/02 10:47:49;;;;;;;48.10;28.60;;;;;;;;;;771327;181;876799;-65
2023/03/02 10:50:17;;;;;;;40.90;23.50;;;;;;;;;;769640;179;894223;-68
2023/03/02 10:52:43;;;;;;;30.83;19.17;;;;;;;;;;758549;183;896205;-65
2023/03/02 10:55:09;;;;;;;36.57;21.80;;;;;;;;;;759682;182;919058;-69
2023/03/02 10:57:35;;;;;;;59.17;29.60;;;;;;;;;;775693;180;916010;-65
2023/03/02 11:00:01;;;;;;;29.73;17.90;;;;;;;;;;780120;180;917909;-64
2023/03/02 11:02:28;;;;;;;41.60;25.30;;;;;;;;;;770341;181;915102;-68
2023/03/02 11:04:53;;;;;;;147.37;60.97;;;;;;;;;;769411;181;920894;-68
2023/03/02 11:07:19;;;;;;;57.97;29.63;;;;;;;;;;768868;180;923945;-69
2023/03/02 11:09:51;;;;;;;61.13;29.70;;;;;;;;;;772098;181;919871;-70
2023/03/02 11:12:16;;;;;;;33.50;18.90;;;;;;;;;;770715;180;926023;-69
2023/03/02 11:14:42;;;;;;;38.07;20.07;;;;;;;;;;768481;181;913903;-68
2023/03/02 11:17:12;;;;;;;61.83;32.70;;;;;;;;;;776349;181;917435;-67
2023/03/02 11:19:38;;;;;;;63.47;34.63;;;;;;;;;;774639;177;920988;-69
2023/03/02 11:22:05;;;;;;;52.03;29.33;;;;;;;;;;768268;181;920367;-69
2023/03/02 11:24:31;;;;;;;49.40;27.63;;;;;;;;;;772194;181;920203;-68
2023/03/02 11:26:59;;;;;;;45.77;25.57;;;;;;;;;;773682;181;919022;-65
2023/03/02 11:29:41;;;;;;;51.37;32.70;;;;;;;;;;769107;182;918141;-67
2023/03/02 11:32:10;;;;;;;43.73;24.13;;;;;;;;;;765773;180;920793;-65
2023/03/02 11:34:55;;;;;;;63.33;32.70;;;;;;;;;;769936;181;900238;-68
2023/03/02 11:37:21;;;;;;;53.70;28.20;;;;;;;;;;771720;181;814947;-69
2023/03/02 11:40:02;;;;;;;67.67;34.80;;;;;;;;;;776079;181;815206;-68
2023/03/02 11:42:30;;;;;;;55.87;30.37;;;;;;;;;;774237;181;816395;-65
2023/03/02 11:44:56;;;;;;;59.13;35.07;;;;;;;;;;760327;183;919710;-65
2023/03/02 11:47:22;;;;;;;61.30;33.00;;;;;;;;;;760436;180;916570;-68
2023/03/02 11:49:48;;;;;;;64.83;36.97;;;;;;;;;;769173;181;920745;-65
2023/03/02 11:52:14;;;;;;;59.97;31.03;;;;;;;;;;777315;181;941934;-68
2023/03/02 11:54:40;;;;;;;43.73;25.10;;;;;;;;;;775934;181;917363;-68
2023/03/02 11:57:06;;;;;;;65.77;34.77;;;;;;;;;;776088;180;919402;-65
2023/03/02 11:59:32;;;;;;;67.93;40.23;;;;;;;;;;775841;180;920520;-65
2023/03/02 12:01:59;;;;;;;65.67;36.57;;;;;;;;;;767337;180;920072;-68
2023/03/02 12:04:27;;;;;;;78.50;44.20;;;;;;;;;;769600;181;917617;-65
2023/03/02 12:06:52;;;;;;;58.43;30.63;;;;;;;;;;772710;181;916495;-65
2023/03/02 12:09:25;;;;;;;83.10;40.73;;;;;;;;;;768865;181;910535;-68
2023/03/02 12:11:53;;;;;;;69.37;33.90;;;;;;;;;;766302;181;922400;-68
2023/03/02 12:14:25;;;;;;;63.07;35.50;;;;;;;;;;765800;182;934722;-69
2023/03/02 12:16:51;;;;;;;44.70;24.17;;;;;;;;;;770543;181;910057;-65
2023/03/02 12:19:31;;;;;;;57.43;31.23;;;;;;;;;;778241;181;778067;-65
2023/03/02 12:21:58;;;;;;;61.73;33.03;;;;;;;;;;766606;181;919764;-69
2023/03/02 12:24:25;;;;;;;67.73;33.20;;;;;;;;;;757998;184;921108;-68
2023/03/02 12:26:57;;;;;;;47.63;29.37;;;;;;;;;;761661;183;860641;-66
2023/03/02 12:29:23;;;;;;;58.07;30.03;;;;;;;;;;767739;180;819923;-69
2023/03/02 12:31:48;;;;;;;42.83;24.77;;;;;;;;;;771705;179;878850;-65
2023/03/02 12:34:20;;;;;;;65.93;29.10;;;;;;;;;;772933;180;919181;-65
2023/03/02 12:36:46;;;;;;;52.20;28.97;;;;;;;;;;774217;180;936212;-66
2023/03/02 12:39:13;;;;;;;55.33;28.13;;;;;;;;;;776436;181;919237;-65
2023/03/02 12:41:40;;;;;;;59.60;27.13;;;;;;;;;;771724;181;920677;-69
2023/03/02 12:44:11;;;;;;;61.13;30.30;;;;;;;;;;769636;180;916433;-69
2023/03/02 12:46:39;;;;;;;69.03;38.73;;;;;;;;;;767390;182;817630;-68
2023/03/02 12:49:04;;;;;;;56.57;25.87;;;;;;;;;;766754;184;895197;-66
2023/03/02 12:51:31;;;;;;;89.60;44.67;;;;;;;;;;763688;180;919369;-67
2023/03/02 12:54:02;;;;;;;47.57;27.93;;;;;;;;;;762557;183;949858;-68
2023/03/02 12:56:28;;;;;;;70.97;38.87;;;;;;;;;;763922;182;918130;-67
2023/03/02 12:58:54;;;;;;;67.63;32.23;;;;;;;;;;778030;181;812871;-68
2023/03/02 13:01:19;;;;;;;74.17;40.23;;;;;;;;;;768516;179;919246;-70
2023/03/02 13:03:45;;;;;;;70.97;39.73;;;;;;;;;;771977;179;928414;-66
2023/03/02 13:06:11;;;;;;;77.97;37.53;;;;;;;;;;774061;181;873994;-72
2023/03/02 13:08:37;;;;;;;48.17;26.10;;;;;;;;;;764397;181;917427;-67
2023/03/02 13:11:03;;;;;;;43.40;21.87;;;;;;;;;;762743;182;1018536;-69
2023/03/02 13:13:35;;;;;;;74.47;39.87;;;;;;;;;;772776;181;918061;-69
2023/03/02 13:16:01;;;;;;;72.23;41.30;;;;;;;;;;771921;181;919609;-67
2023/03/02 13:18:27;;;;;;;77.13;40.70;;;;;;;;;;772505;180;918816;-69
2023/03/02 13:20:52;;;;;;;62.10;33.63;;;;;;;;;;772096;181;921483;-66
2023/03/02 13:23:18;;;;;;;78.47;35.47;;;;;;;;;;774002;182;916931;-69
2023/03/02 13:25:48;;;;;;;49.67;27.93;;;;;;;;;;769466;181;917381;-68
2023/03/02 13:28:20;;;;;;;57.03;30.50;;;;;;;;;;776894;180;819436;-66
2023/03/02 13:30:47;;;;;;;84.40;39.30;;;;;;;;;;772062;181;918779;-68
2023/03/02 13:33:12;;;;;;;72.73;41.50;;;;;;;;;;777530;181;919454;-66
2023/03/02 13:35:38;;;;;;;88.63;43.00;;;;;;;;;;774245;181;918834;-69
2023/03/02 13:38:04;;;;;;;56.33;30.20;;;;;;;;;;770532;180;824387;-69
2023/03/02 13:40:30;;;;;;;63.10;34.77;;;;;;;;;;772686;181;900371;-68
2023/03/02 13:42:55;;;;;;;65.63;33.37;;;;;;;;;;768165;180;914999;-66
2023/03/02 13:45:21;;;;;;;81.93;40.50;;;;;;;;;;770819;181;918503;-66
2023/03/02 13:47:48;;;;;;;72.10;37.57;;;;;;;;;;771486;179;927574;-66
2023/03/02 13:50:16;;;;;;;85.00;41.40;;;;;;;;;;780660;179;918326;-66
2023/03/02 13:52:42;;;;;;;50.97;29.53;;;;;;;;;;767730;181;919805;-70
2023/03/02 13:55:12;;;;;;;76.57;39.27;;;;;;;;;;771107;181;918920;-69
2023/03/02 13:57:40;;;;;;;77.20;40.87;;;;;;;;;;773566;181;920549;-68